createdAt,value
2023-05-10T00:02:21.864Z,9.40
2023-05-10T00:04:49.668Z,9.40
2023-05-10T00:07:16.906Z,9.40
2023-05-10T00:09:44.864Z,9.40
2023-05-10T00:12:12.243Z,9.50
2023-05-10T00:14:39.506Z,9.40
2023-05-10T00:17:06.795Z,9.50
2023-05-10T00:19:34.161Z,9.40
2023-05-10T00:22:01.672Z,9.40
2023-05-10T00:24:28.965Z,9.40
2023-05-10T00:26:56.255Z,9.40
2023-05-10T00:29:23.707Z,9.40
2023-05-10T00:31:51.068Z,9.30
2023-05-10T00:34:18.389Z,9.30
2023-05-10T00:36:45.687Z,9.40
2023-05-10T00:39:13.021Z,9.40
2023-05-10T00:41:40.321Z,9.30
2023-05-10T00:44:07.690Z,9.30
2023-05-10T00:46:35.496Z,9.30
2023-05-10T00:49:03.218Z,9.30
2023-05-10T00:51:31.059Z,9.20
2023-05-10T00:53:59.299Z,9.30
2023-05-10T00:56:28.140Z,9.30
2023-05-10T00:58:55.620Z,9.30
2023-05-10T01:01:23.819Z,9.20
2023-05-10T01:03:51.591Z,9.10
2023-05-10T01:06:19.049Z,9.10
2023-05-10T01:08:46.751Z,9.00
2023-05-10T01:11:14.615Z,9.10
2023-05-10T01:13:47.444Z,9.10
2023-05-10T01:16:15.097Z,9.10
2023-05-10T01:18:43.985Z,9.10
2023-05-10T01:21:51.903Z,9.10
2023-05-10T01:25:12.324Z,9.10
2023-05-10T01:27:57.337Z,9.10
2023-05-10T01:30:46.551Z,9.20
2023-05-10T01:33:24.244Z,9.10
2023-05-10T01:36:16.672Z,9.10
2023-05-10T01:39:06.969Z,9.00
2023-05-10T01:42:12.090Z,9.00
2023-05-10T01:44:48.637Z,9.00
2023-05-10T01:47:30.642Z,8.90
2023-05-10T01:50:04.274Z,9.00
2023-05-10T01:52:45.890Z,9.00
2023-05-10T01:55:19.221Z,9.10
2023-05-10T01:57:52.321Z,9.00
2023-05-10T02:00:21.433Z,9.00
2023-05-10T02:02:51.973Z,8.90
2023-05-10T02:05:21.843Z,8.90
2023-05-10T02:07:51.093Z,8.90
2023-05-10T02:10:21.015Z,8.90
2023-05-10T02:12:51.075Z,8.90
2023-05-10T02:15:25.048Z,8.90
2023-05-10T02:17:56.442Z,8.90
2023-05-10T02:20:26.960Z,8.90
2023-05-10T02:22:58.658Z,8.90
2023-05-10T02:25:28.266Z,8.90
2023-05-10T02:27:58.831Z,8.90
2023-05-10T02:30:27.231Z,8.90
2023-05-10T02:32:55.657Z,8.80
2023-05-10T02:35:24.844Z,8.80
2023-05-10T02:37:53.728Z,8.80
2023-05-10T02:40:24.407Z,8.90
2023-05-10T02:42:57.416Z,8.80
2023-05-10T02:45:31.271Z,8.80
2023-05-10T02:47:59.654Z,8.80
2023-05-10T02:50:31.253Z,8.80
2023-05-10T02:53:05.058Z,8.80
2023-05-10T02:55:41.538Z,8.80
2023-05-10T02:58:08.870Z,8.80
2023-05-10T03:00:36.269Z,8.80
2023-05-10T03:03:03.617Z,8.70
2023-05-10T03:05:30.952Z,8.70
2023-05-10T03:07:58.475Z,8.80
2023-05-10T03:10:31.592Z,8.70
2023-05-10T03:13:27.073Z,8.70
2023-05-10T03:16:09.090Z,8.70
2023-05-10T03:18:42.110Z,8.60
2023-05-10T03:21:14.750Z,8.60
2023-05-10T03:24:09.042Z,8.60
2023-05-10T03:26:38.358Z,8.60
2023-05-10T03:29:08.338Z,8.70
2023-05-10T03:31:36.217Z,8.60
2023-05-10T03:34:04.057Z,8.60
2023-05-10T03:36:31.403Z,8.60
2023-05-10T03:38:58.692Z,8.50
2023-05-10T03:41:26.016Z,8.50
2023-05-10T03:43:53.483Z,8.50
2023-05-10T03:46:20.684Z,8.50
2023-05-10T03:48:47.977Z,8.50
2023-05-10T03:51:15.320Z,8.50
2023-05-10T03:53:42.635Z,8.50
2023-05-10T03:56:09.935Z,8.40
2023-05-10T03:58:37.309Z,8.40
2023-05-10T04:01:04.615Z,8.50
2023-05-10T04:03:31.996Z,8.50
2023-05-10T04:06:03.501Z,8.50
2023-05-10T04:08:31.038Z,8.50
2023-05-10T04:11:12.540Z,8.50
2023-05-10T04:13:39.973Z,8.50
2023-05-10T04:16:07.494Z,8.40
2023-05-10T04:18:34.753Z,8.40
2023-05-10T04:21:02.086Z,8.50
2023-05-10T04:23:29.656Z,8.50
2023-05-10T04:26:04.256Z,8.40
2023-05-10T04:28:31.617Z,8.40
2023-05-10T04:31:10.395Z,8.40
2023-05-10T04:33:38.224Z,8.40
2023-05-10T04:36:06.130Z,8.30
2023-05-10T04:38:33.345Z,8.40
2023-05-10T04:41:09.491Z,8.40
2023-05-10T04:43:37.658Z,8.40
2023-05-10T04:46:06.558Z,8.40
2023-05-10T04:48:34.265Z,8.40
2023-05-10T04:51:01.679Z,8.40
2023-05-10T04:53:29.002Z,8.30
2023-05-10T04:55:56.476Z,8.30
2023-05-10T04:58:24.011Z,8.30
2023-05-10T05:00:51.286Z,8.30
2023-05-10T05:03:18.742Z,8.40
2023-05-10T05:05:46.063Z,8.40
2023-05-10T05:08:13.297Z,8.30
2023-05-10T05:10:40.596Z,8.30
2023-05-10T05:13:08.010Z,8.30
2023-05-10T05:15:35.384Z,8.30
2023-05-10T05:18:02.635Z,8.30
2023-05-10T05:20:33.552Z,8.30
2023-05-10T05:23:01.517Z,8.30
2023-05-10T05:25:29.041Z,8.30
2023-05-10T05:27:56.389Z,8.30
2023-05-10T05:30:23.700Z,8.30
2023-05-10T05:32:50.979Z,8.30
2023-05-10T05:35:18.655Z,8.30
2023-05-10T05:37:46.113Z,8.30
2023-05-10T05:40:16.624Z,8.40
2023-05-10T05:42:44.087Z,8.40
2023-05-10T05:45:11.842Z,8.40
2023-05-10T05:47:43.647Z,8.50
2023-05-10T05:50:11.612Z,8.40
2023-05-10T05:52:38.875Z,8.50
2023-05-10T05:55:06.792Z,8.50
2023-05-10T05:57:34.304Z,8.60
2023-05-10T06:00:01.627Z,8.60
2023-05-10T06:02:29.118Z,8.60
2023-05-10T06:04:56.432Z,8.70
2023-05-10T06:07:23.776Z,8.60
2023-05-10T06:09:51.164Z,8.60
2023-05-10T06:12:18.786Z,8.60
2023-05-10T06:14:46.090Z,8.60
2023-05-10T06:17:13.482Z,8.60
2023-05-10T06:19:40.906Z,8.70
2023-05-10T06:22:08.547Z,8.70
2023-05-10T06:24:35.845Z,8.70
2023-05-10T06:27:03.167Z,8.80
2023-05-10T06:29:30.452Z,8.70
2023-05-10T06:31:58.008Z,8.70
2023-05-10T06:34:25.811Z,8.70
2023-05-10T06:36:53.336Z,8.60
2023-05-10T06:39:20.758Z,8.60
2023-05-10T06:41:48.166Z,8.60
2023-05-10T06:44:15.631Z,8.60
2023-05-10T06:46:43.127Z,8.50
2023-05-10T06:49:10.533Z,8.60
2023-05-10T06:51:37.801Z,8.70
2023-05-10T06:54:05.069Z,8.50
2023-05-10T06:56:32.334Z,8.40
2023-05-10T06:58:59.547Z,8.50
2023-05-10T07:01:27.031Z,8.60
2023-05-10T07:03:54.523Z,8.60
2023-05-10T07:06:32.235Z,8.60
2023-05-10T07:09:01.639Z,8.70
2023-05-10T07:11:29.093Z,8.70
2023-05-10T07:13:56.376Z,8.80
2023-05-10T07:16:23.730Z,8.80
2023-05-10T07:18:51.006Z,8.70
2023-05-10T07:21:18.351Z,8.70
2023-05-10T07:23:45.647Z,8.70
2023-05-10T07:26:13.269Z,8.70
2023-05-10T07:28:40.506Z,8.70
2023-05-10T07:31:08.218Z,8.60
2023-05-10T07:33:35.576Z,8.80
2023-05-10T07:36:03.008Z,8.80
2023-05-10T07:38:30.443Z,8.80
2023-05-10T07:40:57.769Z,8.90
2023-05-10T07:43:25.045Z,8.90
2023-05-10T07:45:54.634Z,8.80
2023-05-10T07:48:23.429Z,8.80
2023-05-10T07:50:50.816Z,8.80
2023-05-10T07:53:18.729Z,8.80
2023-05-10T07:55:51.828Z,8.50
2023-05-10T07:58:19.318Z,8.90
2023-05-10T08:00:46.714Z,8.90
2023-05-10T08:03:14.183Z,8.90
2023-05-10T08:05:41.736Z,8.90
2023-05-10T08:08:09.073Z,8.80
2023-05-10T08:10:36.415Z,8.80
2023-05-10T08:13:03.994Z,8.70
2023-05-10T08:15:31.318Z,8.80
2023-05-10T08:17:58.836Z,8.90
2023-05-10T08:20:26.170Z,8.80
2023-05-10T08:22:53.493Z,8.90
2023-05-10T08:25:21.184Z,8.90
2023-05-10T08:27:48.796Z,8.90
2023-05-10T08:30:16.437Z,8.90
2023-05-10T08:32:44.002Z,9.00
2023-05-10T08:35:11.392Z,8.90
2023-05-10T08:37:38.711Z,8.90
2023-05-10T08:40:09.849Z,8.90
2023-05-10T08:42:41.316Z,9.00
2023-05-10T08:45:13.206Z,9.00
2023-05-10T08:47:41.479Z,9.10
2023-05-10T08:50:10.848Z,9.10
2023-05-10T08:52:41.368Z,9.10
2023-05-10T08:55:09.464Z,9.20
2023-05-10T08:57:37.802Z,9.10
2023-05-10T09:00:06.295Z,9.10
2023-05-10T09:02:34.433Z,9.10
2023-05-10T09:05:02.041Z,9.10
2023-05-10T09:07:29.617Z,9.10
2023-05-10T09:09:58.909Z,9.10
2023-05-10T09:12:26.490Z,9.10
2023-05-10T09:14:56.861Z,9.00
2023-05-10T09:17:26.324Z,9.00
2023-05-10T09:20:05.254Z,8.90
2023-05-10T09:22:33.122Z,8.90
2023-05-10T09:25:13.371Z,8.80
2023-05-10T09:27:48.353Z,8.70
2023-05-10T09:30:32.181Z,8.80
2023-05-10T09:33:00.915Z,8.70
2023-05-10T09:35:32.465Z,8.70
2023-05-10T09:38:04.714Z,8.70
2023-05-10T09:40:33.412Z,8.70
2023-05-10T09:43:04.493Z,8.80
2023-05-10T09:45:37.700Z,8.80
2023-05-10T09:48:07.219Z,8.80
2023-05-10T09:50:34.778Z,8.70
2023-05-10T09:53:04.550Z,8.70
2023-05-10T09:55:46.742Z,8.80
2023-05-10T09:58:15.525Z,8.70
2023-05-10T10:00:45.477Z,8.50
2023-05-10T10:03:19.544Z,8.60
2023-05-10T10:05:48.851Z,8.50
2023-05-10T10:08:17.049Z,8.50
2023-05-10T10:10:44.414Z,8.60
2023-05-10T10:13:11.948Z,8.50
2023-05-10T10:15:40.224Z,8.40
2023-05-10T10:18:13.476Z,8.50
2023-05-10T10:20:41.188Z,8.50
2023-05-10T10:23:09.859Z,8.50
2023-05-10T10:25:39.290Z,8.50
2023-05-10T10:28:28.465Z,8.50
2023-05-10T10:31:02.061Z,8.50
2023-05-10T10:33:42.387Z,8.50
2023-05-10T10:36:09.843Z,8.50
2023-05-10T10:39:02.336Z,8.50
2023-05-10T10:41:36.115Z,8.50
